Portada
METAR-TAF:

METAR-TAF

Aeropuertos :

Aeropuerto Internacional de Shanghái-Pudong

Shanghái-Pudong, China

latitud: 31-07N, longitud: 121-46E, altitud: 4 m

Observación

El informe se hizo hace 34 minutos, a las 01:00 UTC
Viento 8 kt del este-sureste
Temperatura 23°C
Humedad 89%
Presión 1008 hPa
Visibilidad 10 km o más
Cielo nuboso a una altura de 1300 ft
chaparrones de lluvia

METAR: ZSPD 220100Z 11004MPS 9999 -SHRA BKN013 23/21 Q1008 BECMG TL0200 BKN015

Hora: 09:34 (01:34 UTC)

Pronóstico

El informe se hizo hace 4 horas y 24 minutos, a las 21:10 UTC
Pronóstico válido del 22 a las 00 UTC al 22 a las 24 UTC
Viento 8 kt del este-sureste
Visibilidad: 6000 m
Cielo nuboso a una altura de 1300 ft

TAF: ZSPD 212110Z 2200/2224 12004MPS 6000 BKN013 TX25/2206Z TN20/2221Z

Observaciones y pronósticos meteorológicos de más de 4000 aeropuertos (mensajes METAR y TAF).

Los puntos amarillos y rojos representan las estaciones disponibles.

Ponga el ratón en el punto deseado para ver el nombre de la estación.

Haga clic para ver las observaciones y los pronósticos meteorológicos.

Para cambiar el mapa : haga clic en los botones verdes con una cruz de color negro para hacer un zoom, en el botón verde con un guión para alejar o en las flechas verdes para mapas adyacentes.


METAR-TAF: